M I D A S
Marine Information and Data Acquisition System
Tripno 1764 of the Zeeleeuw from 2009-07-14 06:55:09 to 2009-07-14 15:07:34
Back to CruiseResearch ActivitiesStationsMapUnderway DataData graphs

EquipmentUnitsComments
TimeDGPSUTC
LatitudeDGPSDM.mWGS84
LongitudeDGPSDM.mWGS84
SpeedMeteo Stationm/sRelative wind speed
DirectionMeteo StationdegRelative wind direction
TemperatureMeteo Stationdeg CelciusAir temperature
PressureMeteo StationPaAtmospheric pressure
HumidityMeteo Station%Relative humidity
Missing or incorrect values are displayed as -999
Metereological data collected by the RV Zeeleeuw from 2009-07-14 06:40:25 to 2009-07-14 15:14:00
                                                                                    Next 1000 lines
Time Latitude Longitude Speed Direction Temperature Pressure Humidity
2009-07-14 06:40:35 51°13.663 2°55.96 3.1 4 17.2 100990 92
2009-07-14 06:40:40 51°13.663 2°55.96 3.4 10 17.2 100990 92
2009-07-14 06:40:45 51°13.663 2°55.96 3.1 11 17.2 100990 92
2009-07-14 06:40:50 51°13.663 2°55.961 3 14 17.2 100990 92
2009-07-14 06:40:55 51°13.663 2°55.961 2.9 11 17.2 101000 92
2009-07-14 06:41:00 51°13.663 2°55.961 2.4 11 17.2 101000 92
2009-07-14 06:41:05 51°13.663 2°55.961 2.5 17 17.2 100990 92
2009-07-14 06:41:10 51°13.663 2°55.961 2.6 7 17.2 100990 92
2009-07-14 06:41:15 51°13.663 2°55.961 2.4 6 17.2 100990 92
2009-07-14 06:41:20 51°13.663 2°55.961 2.6 12 17.2 100990 92
2009-07-14 06:41:26 51°13.663 2°55.961 2.1 7 17.2 100990 92
2009-07-14 06:41:31 51°13.663 2°55.96 1.8 7 17.2 100990 92
2009-07-14 06:41:36 51°13.663 2°55.96 1.7 9 17.2 101000 92
2009-07-14 06:41:41 51°13.663 2°55.96 2.1 8 17.2 101000 92
2009-07-14 06:41:46 51°13.663 2°55.96 1.8 16 17.2 100990 92
2009-07-14 06:41:51 51°13.663 2°55.96 2.4 16 17.2 100990 92
2009-07-14 06:41:56 51°13.663 2°55.96 2.2 16 17.2 100990 92
2009-07-14 06:42:01 51°13.663 2°55.96 2.2 12 17.2 100990 92
2009-07-14 06:42:06 51°13.663 2°55.96 2 12 17.2 100990 92
2009-07-14 06:42:10 51°13.663 2°55.96 1.7 9 17.2 100990 92
2009-07-14 06:42:16 51°13.663 2°55.96 2.3 11 17.2 100990 87
2009-07-14 06:42:21 51°13.663 2°55.96 2.3 11 17.2 100990 87
2009-07-14 06:42:26 51°13.663 2°55.96 2.3 12 17.2 100990 91
2009-07-14 06:42:30 51°13.663 2°55.96 2 14 17.2 100990 91
2009-07-14 06:42:35 51°13.663 2°55.96 2.3 6 17.2 100990 92
2009-07-14 06:42:40 51°13.663 2°55.96 1.9 6 17.2 100990 92
2009-07-14 06:42:46 51°13.663 2°55.96 1.6 10 17.2 100990 92
2009-07-14 06:42:51 51°13.663 2°55.96 1.6 6 17.2 100990 92
2009-07-14 06:42:55 51°13.663 2°55.96 1.5 6 17.2 100990 92
2009-07-14 06:43:00 51°13.663 2°55.96 1.7 5 17.2 100990 92
2009-07-14 06:43:05 51°13.663 2°55.96 1.7 6 17.2 100990 91
2009-07-14 06:43:10 51°13.663 2°55.96 1.4 8 17.2 100990 91
2009-07-14 06:43:15 51°13.663 2°55.96 1.2 4 17.2 100990 91
2009-07-14 06:43:20 51°13.663 2°55.96 1.4 4 17.2 100990 91
2009-07-14 06:43:25 51°13.663 2°55.96 1.6 5 17.2 100990 91
2009-07-14 06:43:30 51°13.663 2°55.96 2 15 17.2 100990 91
2009-07-14 06:43:35 51°13.663 2°55.96 1.9 357 17.2 100990 91
2009-07-14 06:43:40 51°13.663 2°55.96 1.5 4 17.2 100990 91
2009-07-14 06:43:45 51°13.663 2°55.96 1.4 -999 17.3 101000 91
2009-07-14 06:43:50 51°13.663 2°55.96 1.3 357 17.3 101000 91
2009-07-14 06:43:55 51°13.663 2°55.96 2 7 17.3 101000 90
2009-07-14 06:44:00 51°13.663 2°55.96 1.9 7 17.3 101000 90
2009-07-14 06:44:05 51°13.663 2°55.96 1.9 1 17.3 101000 91
2009-07-14 06:44:10 51°13.663 2°55.96 1.3 9 17.3 101000 91
2009-07-14 06:44:15 51°13.663 2°55.96 2.1 17 17.3 101000 91
2009-07-14 06:44:20 51°13.663 2°55.96 2.3 19 17.3 101000 91
2009-07-14 06:44:25 51°13.663 2°55.96 2.1 20 17.3 101000 92
2009-07-14 06:44:30 51°13.663 2°55.96 2.4 20 17.3 101000 92
2009-07-14 06:44:34 51°13.663 2°55.96 2.5 14 17.3 101000 92
2009-07-14 06:44:40 51°13.663 2°55.96 3.1 14 17.3 101000 92
2009-07-14 06:44:45 51°13.663 2°55.96 2.2 9 17.3 101000 91
2009-07-14 06:44:50 51°13.663 2°55.96 2.1 11 17.3 101000 91
2009-07-14 06:44:54 51°13.663 2°55.96 2.3 11 17.3 101000 91
2009-07-14 06:44:59 51°13.663 2°55.96 3.1 -999 17.3 101000 91
2009-07-14 06:45:05 51°13.662 2°55.96 2.7 6 17.3 101000 91
2009-07-14 06:45:10 51°13.662 2°55.96 2.6 358 17.3 101000 91
2009-07-14 06:45:15 51°13.662 2°55.96 2.7 360 17.3 101000 91
2009-07-14 06:45:19 51°13.662 2°55.96 1.7 1 17.3 101000 91
2009-07-14 06:45:25 51°13.662 2°55.96 2.1 1 17.3 101000 91
2009-07-14 06:45:30 51°13.662 2°55.96 3.2 11 17.3 101000 91
2009-07-14 06:45:34 51°13.662 2°55.96 2.8 15 17.3 101000 91
2009-07-14 06:45:40 51°13.661 2°55.96 1.9 12 17.3 101000 91
2009-07-14 06:45:44 51°13.661 2°55.96 1.8 10 17.3 101000 92
2009-07-14 06:45:50 51°13.661 2°55.96 1.9 19 17.3 101000 92
2009-07-14 06:45:55 51°13.661 2°55.96 1.9 19 17.3 100990 88
2009-07-14 06:45:59 51°13.661 2°55.96 1.8 15 17.3 100990 88
2009-07-14 06:46:05 51°13.661 2°55.959 2 15 17.3 101000 91
2009-07-14 06:46:10 51°13.662 2°55.958 1.4 9 17.3 101000 91
2009-07-14 06:46:15 51°13.662 2°55.957 2.1 11 17.3 101000 91
2009-07-14 06:46:20 51°13.663 2°55.955 2.1 10 17.3 101000 91
2009-07-14 06:46:25 51°13.663 2°55.952 2.1 9 17.3 101000 87
2009-07-14 06:46:30 51°13.664 2°55.949 1.7 15 17.3 101000 87
2009-07-14 06:46:35 51°13.665 2°55.946 1.5 13 17.3 101000 91
2009-07-14 06:46:40 51°13.666 2°55.941 1.5 10 17.3 101000 91
2009-07-14 06:46:46 51°13.668 2°55.936 1.3 14 17.3 101000 91
2009-07-14 06:46:51 51°13.669 2°55.931 1 16 17.3 101000 91
2009-07-14 06:46:57 51°13.671 2°55.925 1.4 34 17.3 101000 91
2009-07-14 06:47:03 51°13.673 2°55.918 2 38 17.3 101000 91
2009-07-14 06:47:08 51°13.674 2°55.912 2.9 34 17.4 101000 91
2009-07-14 06:47:13 51°13.675 2°55.906 2.5 28 17.4 101000 91
2009-07-14 06:47:18 51°13.677 2°55.9 2.5 30 17.4 101000 91
2009-07-14 06:47:23 51°13.678 2°55.894 2 34 17.4 101000 91
2009-07-14 06:47:29 51°13.68 2°55.887 2.6 32 17.4 101000 91
2009-07-14 06:47:34 51°13.681 2°55.88 2.5 28 17.4 101000 91
2009-07-14 06:47:38 51°13.682 2°55.875 2 27 17.4 101000 91
2009-07-14 06:47:43 51°13.684 2°55.869 1.8 27 17.4 101000 91
2009-07-14 06:47:49 51°13.686 2°55.861 1.9 25 17.4 101000 91
2009-07-14 06:47:54 51°13.687 2°55.855 2.1 27 17.4 101000 91
2009-07-14 06:47:58 51°13.688 2°55.85 2 29 17.4 101000 91
2009-07-14 06:48:03 51°13.689 2°55.843 2.3 28 17.4 101000 91
2009-07-14 06:48:09 51°13.691 2°55.836 2.3 28 17.4 101000 91
2009-07-14 06:48:14 51°13.692 2°55.829 2.4 29 17.4 101000 91
2009-07-14 06:48:18 51°13.693 2°55.824 2.4 25 17.4 101000 91
2009-07-14 06:48:23 51°13.694 2°55.818 2.5 25 17.4 101000 91
2009-07-14 06:48:28 51°13.695 2°55.811 2.3 25 17.4 101000 91
2009-07-14 06:48:33 51°13.696 2°55.805 2.4 35 17.4 101000 91
2009-07-14 06:48:38 51°13.697 2°55.799 2.1 36 17.4 101000 86
2009-07-14 06:48:43 51°13.698 2°55.793 2.2 37 17.4 101000 86
2009-07-14 06:48:48 51°13.698 2°55.788 2.7 26 17.4 101000 91
2009-07-14 06:48:53 51°13.699 2°55.782 2.6 27 17.4 101000 91
2009-07-14 06:48:58 51°13.7 2°55.777 3.5 31 17.4 101000 91
2009-07-14 06:49:03 51°13.7 2°55.773 3.2 31 17.4 101000 91
2009-07-14 06:49:08 51°13.701 2°55.769 3.2 31 17.4 101000 91
2009-07-14 06:49:13 51°13.701 2°55.766 2.8 32 17.4 101000 91
2009-07-14 06:49:18 51°13.701 2°55.763 3.1 37 17.4 101000 90
2009-07-14 06:49:23 51°13.701 2°55.761 2.5 37 17.4 101000 90
2009-07-14 06:49:27 51°13.702 2°55.76 2.4 35 17.4 101000 91
2009-07-14 06:49:32 51°13.702 2°55.759 2.2 33 17.4 101000 91
2009-07-14 06:49:37 51°13.702 2°55.759 2.4 35 17.4 101000 90
2009-07-14 06:49:42 51°13.702 2°55.758 2.2 36 17.4 101000 90
2009-07-14 06:49:47 51°13.702 2°55.758 2 38 17.4 100990 91
2009-07-14 06:49:52 51°13.703 2°55.758 1.8 37 17.4 100990 91
2009-07-14 06:49:57 51°13.703 2°55.758 1.5 37 17.4 101000 91
2009-07-14 06:50:02 51°13.703 2°55.759 1.7 31 17.4 101000 91
2009-07-14 06:50:06 51°13.703 2°55.758 2 31 17.4 101000 91
2009-07-14 06:50:11 51°13.703 2°55.757 2.1 32 17.4 101000 91
2009-07-14 06:50:16 51°13.703 2°55.756 2.4 34 17.4 101000 91
2009-07-14 06:50:21 51°13.702 2°55.754 3 38 17.4 101000 91
2009-07-14 06:50:26 51°13.701 2°55.752 3 37 17.4 101000 91
2009-07-14 06:50:31 51°13.7 2°55.751 2.9 43 17.4 101000 91
2009-07-14 06:50:35 51°13.699 2°55.75 2.4 43 17.4 101000 91
2009-07-14 06:50:40 51°13.698 2°55.748 3 37 17.4 101000 91
2009-07-14 06:50:45 51°13.698 2°55.747 2.5 34 17.4 101000 91
2009-07-14 06:50:50 51°13.698 2°55.747 2.6 35 17.4 101000 91
2009-07-14 06:50:55 51°13.698 2°55.747 2.7 40 17.5 101000 91
2009-07-14 06:50:59 51°13.699 2°55.747 2.7 39 17.5 101000 91
2009-07-14 06:51:05 51°13.7 2°55.747 2 82 17.5 101000 91
2009-07-14 06:51:10 51°13.701 2°55.747 2.1 39 17.5 101000 91
2009-07-14 06:51:15 51°13.703 2°55.748 1.1 76 17.5 101000 91
2009-07-14 06:51:19 51°13.704 2°55.748 0.8 41 17.5 101000 90
2009-07-14 06:51:24 51°13.706 2°55.748 1.1 80 17.5 101000 90
2009-07-14 06:51:30 51°13.709 2°55.748 1.4 34 17.5 101000 90
2009-07-14 06:51:34 51°13.711 2°55.747 0.9 285 17.5 101000 91
2009-07-14 06:51:40 51°13.715 2°55.746 1.4 266 17.5 101000 91
2009-07-14 06:51:44 51°13.718 2°55.744 1.7 280 17.5 101000 91
2009-07-14 06:51:50 51°13.721 2°55.741 1.7 254 17.5 101000 91
2009-07-14 06:51:54 51°13.724 2°55.738 1.9 281 17.5 101000 91
2009-07-14 06:52:00 51°13.73 2°55.733 1.8 252 17.5 101000 92
2009-07-14 06:52:05 51°13.734 2°55.728 2 286 17.5 101000 92
2009-07-14 06:52:10 51°13.739 2°55.722 1.4 252 17.5 101000 92
2009-07-14 06:52:15 51°13.745 2°55.716 1 277 17.5 101000 92
2009-07-14 06:52:20 51°13.75 2°55.71 1.3 252 17.5 101000 92
2009-07-14 06:52:25 51°13.756 2°55.704 1.2 281 17.6 101000 91
2009-07-14 06:52:30 51°13.763 2°55.697 1.1 250 17.6 101000 91
2009-07-14 06:52:35 51°13.769 2°55.689 1.1 278 17.6 101000 91
2009-07-14 06:52:40 51°13.776 2°55.682 1.5 234 17.6 101000 91
2009-07-14 06:52:45 51°13.783 2°55.675 2.6 284 17.6 101000 92
2009-07-14 06:52:50 51°13.791 2°55.668 1.9 32 17.6 101000 91
2009-07-14 06:52:55 51°13.799 2°55.66 1.6 283 17.6 101000 91
2009-07-14 06:52:59 51°13.806 2°55.654 1.5 238 17.6 101000 91
2009-07-14 06:53:05 51°13.816 2°55.645 1.7 281 17.6 101000 91
2009-07-14 06:53:10 51°13.825 2°55.638 1.7 40 17.6 101000 91
2009-07-14 06:53:15 51°13.834 2°55.631 2.2 278 17.6 101000 91
2009-07-14 06:53:20 51°13.843 2°55.624 2.4 37 17.6 101000 92
2009-07-14 06:53:25 51°13.852 2°55.616 1.9 279 17.6 101000 92
2009-07-14 06:53:30 51°13.862 2°55.609 2 328 17.6 101010 92
2009-07-14 06:53:35 51°13.871 2°55.602 2 286 17.6 101010 92
2009-07-14 06:53:40 51°13.881 2°55.595 3.2 318 17.6 101010 92
2009-07-14 06:53:45 51°13.891 2°55.587 2.4 277 17.6 101010 91
2009-07-14 06:53:50 51°13.901 2°55.58 2.4 38 17.6 101010 91
2009-07-14 06:53:54 51°13.909 2°55.574 2.3 278 17.6 101000 91
2009-07-14 06:54:00 51°13.921 2°55.566 2 40 17.6 101000 90
2009-07-14 06:54:05 51°13.931 2°55.558 1.8 279 17.6 101000 90
2009-07-14 06:54:10 51°13.941 2°55.551 1.2 37 17.6 101000 91
2009-07-14 06:54:14 51°13.949 2°55.545 1.4 283 17.6 101000 91
2009-07-14 06:54:20 51°13.961 2°55.536 2.2 320 17.6 101000 91
2009-07-14 06:54:25 51°13.971 2°55.529 2.4 281 17.6 101000 91
2009-07-14 06:54:30 51°13.982 2°55.521 1.9 321 17.6 101000 91
2009-07-14 06:54:34 51°13.99 2°55.515 1 280 17.6 101000 91
2009-07-14 06:54:40 51°14.002 2°55.506 2.6 317 17.6 101000 91
2009-07-14 06:54:45 51°14.012 2°55.499 2.7 282 17.6 101000 91
2009-07-14 06:54:50 51°14.022 2°55.491 3.1 39 17.6 101000 91
2009-07-14 06:54:55 51°14.032 2°55.483 3.5 277 17.6 101000 88
2009-07-14 06:55:00 51°14.043 2°55.475 3.2 230 17.6 101000 88
2009-07-14 06:55:04 51°14.051 2°55.468 2.7 279 17.7 101000 91
2009-07-14 06:55:10 51°14.064 2°55.458 3.5 316 17.7 101010 91
2009-07-14 06:55:14 51°14.072 2°55.451 3.2 279 17.7 101010 91
2009-07-14 06:55:20 51°14.085 2°55.441 2.8 317 17.7 101010 91
2009-07-14 06:55:24 51°14.093 2°55.434 3.1 281 17.7 101000 91
2009-07-14 06:55:30 51°14.106 2°55.424 2.9 32 17.7 101000 91
2009-07-14 06:55:35 51°14.117 2°55.415 2.3 277 17.6 101000 91
2009-07-14 06:55:40 51°14.128 2°55.407 2 321 17.7 101000 91
2009-07-14 06:55:45 51°14.138 2°55.398 2.4 283 17.7 101000 91
2009-07-14 06:55:50 51°14.149 2°55.389 2.9 39 17.7 101010 91
2009-07-14 06:55:55 51°14.16 2°55.379 3.5 277 17.7 101010 91
2009-07-14 06:56:00 51°14.17 2°55.369 3.4 316 17.7 101010 91
2009-07-14 06:56:05 51°14.181 2°55.359 3.4 283 17.7 101000 91
2009-07-14 06:56:10 51°14.191 2°55.349 3.2 318 17.7 101000 91
2009-07-14 06:56:14 51°14.199 2°55.34 3 278 17.7 101000 91
2009-07-14 06:56:20 51°14.211 2°55.326 3.9 326 17.7 101000 91
2009-07-14 06:56:25 51°14.221 2°55.314 4.8 280 17.7 101000 91
2009-07-14 06:56:30 51°14.23 2°55.302 4.5 36 17.7 101000 91
2009-07-14 06:56:34 51°14.238 2°55.291 4 276 17.7 101000 91
2009-07-14 06:56:40 51°14.248 2°55.275 3.9 319 17.7 101000 91
2009-07-14 06:56:45 51°14.257 2°55.261 4.5 284 17.7 101000 90
2009-07-14 06:56:50 51°14.265 2°55.247 4.6 317 17.7 101000 91
2009-07-14 06:56:54 51°14.272 2°55.235 4.5 281 17.7 101000 91
2009-07-14 06:57:00 51°14.282 2°55.217 5 318 17.7 101000 90
2009-07-14 06:57:05 51°14.29 2°55.202 3.2 279 17.7 101000 90
2009-07-14 06:57:10 51°14.299 2°55.186 4.8 31 17.7 101000 90
2009-07-14 06:57:14 51°14.306 2°55.174 3.7 285 17.7 101000 90
2009-07-14 06:57:20 51°14.315 2°55.155 4.3 320 17.7 101000 90
2009-07-14 06:57:24 51°14.322 2°55.142 5.7 284 17.7 101000 89
2009-07-14 06:57:30 51°14.332 2°55.122 4.8 35 17.7 101000 90
2009-07-14 06:57:34 51°14.339 2°55.11 4.7 278 17.7 101000 90
2009-07-14 06:57:40 51°14.349 2°55.09 3.9 37 17.7 101000 90
2009-07-14 06:57:44 51°14.355 2°55.077 4.8 281 17.7 101000 90
2009-07-14 06:57:50 51°14.365 2°55.057 5.2 40 17.7 101000 90
2009-07-14 06:57:54 51°14.372 2°55.044 4.8 283 17.7 101000 90
2009-07-14 06:58:00 51°14.382 2°55.024 4.7 37 17.7 101000 90
2009-07-14 06:58:05 51°14.392 2°55.009 5.4 279 17.7 101000 85
2009-07-14 06:58:10 51°14.401 2°54.994 5.3 39 17.7 101000 85
2009-07-14 06:58:15 51°14.411 2°54.979 6 278 17.7 101000 85
2009-07-14 06:58:20 51°14.421 2°54.963 5 34 17.7 101000 89
2009-07-14 06:58:25 51°14.431 2°54.948 5.6 279 17.7 101000 89
2009-07-14 06:58:30 51°14.441 2°54.933 5.5 232 17.7 101000 88
2009-07-14 06:58:34 51°14.449 2°54.921 4.7 281 17.7 101000 88
2009-07-14 06:58:40 51°14.461 2°54.902 6 235 17.7 101000 89
2009-07-14 06:58:45 51°14.471 2°54.885 5.3 279 17.7 101000 89
2009-07-14 06:58:50 51°14.481 2°54.868 5.6 234 17.7 101000 89
2009-07-14 06:58:54 51°14.489 2°54.855 5.6 277 17.8 101000 89
2009-07-14 06:59:00 51°14.502 2°54.834 5.8 235 17.8 101000 89
2009-07-14 06:59:05 51°14.513 2°54.817 5.4 285 17.7 101000 89
2009-07-14 06:59:10 51°14.524 2°54.8 6.1 236 17.7 101000 89
2009-07-14 06:59:14 51°14.533 2°54.786 5.9 278 17.7 101000 89
2009-07-14 06:59:20 51°14.547 2°54.766 5.4 33 17.7 101000 89
2009-07-14 06:59:25 51°14.559 2°54.749 5.3 279 17.7 101000 89
2009-07-14 06:59:30 51°14.57 2°54.731 5.5 236 17.7 100990 89
2009-07-14 06:59:34 51°14.579 2°54.718 5.3 278 17.7 100990 89
2009-07-14 06:59:40 51°14.594 2°54.697 4.2 31 17.7 101000 89
2009-07-14 06:59:45 51°14.606 2°54.681 4.1 279 17.7 101000 89
2009-07-14 06:59:50 51°14.619 2°54.665 4.3 236 17.7 101000 88
2009-07-14 06:59:55 51°14.631 2°54.65 4.9 277 17.7 101000 88
2009-07-14 06:59:59 51°14.642 2°54.638 4.2 233 17.7 101000 89
2009-07-14 07:00:05 51°14.658 2°54.621 4.5 284 17.7 101000 89
2009-07-14 07:00:10 51°14.671 2°54.607 4.4 31 17.7 101000 89
2009-07-14 07:00:15 51°14.685 2°54.594 4.8 277 17.7 101000 89
2009-07-14 07:00:20 51°14.699 2°54.58 5 235 17.8 101000 89
2009-07-14 07:00:25 51°14.712 2°54.565 5.3 278 17.8 101000 89
2009-07-14 07:00:30 51°14.725 2°54.552 5.5 32 17.8 101000 89
2009-07-14 07:00:35 51°14.739 2°54.538 5.2 284 17.8 101000 89
2009-07-14 07:00:40 51°14.753 2°54.525 5.2 234 17.8 101000 89
2009-07-14 07:00:45 51°14.767 2°54.511 5.3 277 17.8 101000 89
2009-07-14 07:00:50 51°14.781 2°54.498 5.3 231 17.8 101000 89
2009-07-14 07:00:54 51°14.791 2°54.487 4.9 279 17.8 101000 89
2009-07-14 07:00:59 51°14.805 2°54.473 5.6 36 17.8 101000 89
2009-07-14 07:01:05 51°14.822 2°54.458 5.4 279 17.8 101000 89
2009-07-14 07:01:10 51°14.836 2°54.447 4.1 232 17.8 101000 89
2009-07-14 07:01:14 51°14.848 2°54.438 4.1 283 17.8 101000 89
2009-07-14 07:01:19 51°14.862 2°54.426 3.8 32 17.8 101000 89
2009-07-14 07:01:25 51°14.879 2°54.413 5 280 17.7 101010 89
2009-07-14 07:01:30 51°14.894 2°54.401 4.8 33 17.8 101000 89
2009-07-14 07:01:34 51°14.905 2°54.393 4.4 279 17.8 101000 89
2009-07-14 07:01:40 51°14.923 2°54.379 5.1 39 17.8 101000 89
2009-07-14 07:01:44 51°14.934 2°54.37 4.1 278 17.8 101000 89
2009-07-14 07:01:50 51°14.952 2°54.357 4.7 37 17.7 101000 89
2009-07-14 07:01:54 51°14.963 2°54.348 4.4 280 17.7 101000 89
2009-07-14 07:02:00 51°14.98 2°54.334 4.6 35 17.7 101000 89
2009-07-14 07:02:04 51°14.992 2°54.325 4.9 285 17.8 101000 89
2009-07-14 07:02:10 51°15.009 2°54.311 4 34 17.7 101010 89
2009-07-14 07:02:15 51°15.024 2°54.3 5 284 17.7 101010 89
2009-07-14 07:02:20 51°15.038 2°54.288 4.1 32 17.7 101010 88
2009-07-14 07:02:25 51°15.053 2°54.277 4 281 17.7 101010 88
2009-07-14 07:02:30 51°15.067 2°54.265 4.5 34 17.7 101010 89
2009-07-14 07:02:35 51°15.081 2°54.253 5.5 278 17.7 101010 89
2009-07-14 07:02:40 51°15.095 2°54.241 5.6 35 17.7 101010 89
2009-07-14 07:02:44 51°15.107 2°54.231 5.6 277 17.7 101010 88
2009-07-14 07:02:50 51°15.123 2°54.216 5 236 17.7 101010 88
2009-07-14 07:02:54 51°15.135 2°54.207 4.7 279 17.7 101000 89
2009-07-14 07:03:00 51°15.151 2°54.192 4.7 31 17.8 101000 89
2009-07-14 07:03:05 51°15.165 2°54.18 4.5 280 17.8 101000 89
2009-07-14 07:03:10 51°15.179 2°54.168 5 232 17.7 101000 89
2009-07-14 07:03:14 51°15.191 2°54.158 5.1 281 17.7 101000 89
2009-07-14 07:03:20 51°15.207 2°54.144 4.6 37 17.7 101000 89
2009-07-14 07:03:25 51°15.221 2°54.132 5.8 284 17.7 101000 89
2009-07-14 07:03:30 51°15.235 2°54.12 5.5 233 17.7 101000 89
2009-07-14 07:03:34 51°15.246 2°54.11 5.4 283 17.7 101000 89
2009-07-14 07:03:40 51°15.263 2°54.096 5.3 34 17.7 101000 89
2009-07-14 07:03:45 51°15.277 2°54.084 5.1 278 17.7 101000 89
2009-07-14 07:03:50 51°15.291 2°54.072 4.3 235 17.7 101000 89
2009-07-14 07:03:54 51°15.302 2°54.063 4.2 282 17.7 101000 89
2009-07-14 07:04:00 51°15.319 2°54.049 5 32 17.7 101000 89
2009-07-14 07:04:04 51°15.33 2°54.04 4 283 17.7 101000 89
2009-07-14 07:04:10 51°15.348 2°54.026 4.2 235 17.7 101000 89
2009-07-14 07:04:14 51°15.359 2°54.017 4.1 278 17.7 101000 89
2009-07-14 07:04:20 51°15.376 2°54.004 4.7 32 17.7 101000 89
2009-07-14 07:04:24 51°15.387 2°53.995 4.7 282 17.7 101000 89
2009-07-14 07:04:30 51°15.405 2°53.981 4 233 17.7 101000 89
2009-07-14 07:04:34 51°15.416 2°53.972 4.2 280 17.7 101000 89
2009-07-14 07:04:40 51°15.433 2°53.958 4.5 32 17.7 101000 89
2009-07-14 07:04:45 51°15.447 2°53.947 3.7 285 17.7 101000 89
2009-07-14 07:04:50 51°15.461 2°53.936 3.6 235 17.7 101000 89
2009-07-14 07:04:55 51°15.475 2°53.924 4.6 280 17.7 101000 89
2009-07-14 07:05:00 51°15.489 2°53.912 4.8 37 17.7 101000 89
2009-07-14 07:05:05 51°15.504 2°53.9 5 280 17.7 101000 89
2009-07-14 07:05:10 51°15.518 2°53.889 4.6 35 17.7 101000 89
2009-07-14 07:05:14 51°15.529 2°53.88 4 276 17.7 101000 89
2009-07-14 07:05:20 51°15.546 2°53.865 4.9 32 17.7 101000 89
2009-07-14 07:05:25 51°15.561 2°53.853 4.9 283 17.7 101000 89
2009-07-14 07:05:30 51°15.575 2°53.842 4.7 233 17.7 101000 89
2009-07-14 07:05:34 51°15.586 2°53.832 4.4 285 17.7 101000 89
2009-07-14 07:05:40 51°15.603 2°53.818 5.3 234 17.7 101000 89
2009-07-14 07:05:45 51°15.618 2°53.806 4.5 286 17.7 101000 89
2009-07-14 07:05:50 51°15.632 2°53.795 4.8 234 17.7 101000 89
2009-07-14 07:05:54 51°15.644 2°53.786 4.8 285 17.7 101000 89
2009-07-14 07:06:00 51°15.661 2°53.772 5.5 234 17.7 101000 89
2009-07-14 07:06:05 51°15.676 2°53.761 5.2 278 17.7 101000 89
2009-07-14 07:06:10 51°15.69 2°53.75 4.1 35 17.7 101000 90
2009-07-14 07:06:14 51°15.702 2°53.743 5.6 286 17.7 101000 90
2009-07-14 07:06:20 51°15.72 2°53.732 4.6 32 17.7 101000 90
2009-07-14 07:06:25 51°15.735 2°53.725 4.8 21 17.7 101000 90
2009-07-14 07:06:30 51°15.75 2°53.717 4.6 32 17.7 101000 90
2009-07-14 07:06:35 51°15.766 2°53.71 3.6 278 17.7 101000 90
2009-07-14 07:06:39 51°15.778 2°53.705 3.7 236 17.7 101000 89
2009-07-14 07:06:45 51°15.797 2°53.698 4.4 278 17.7 101000 89
2009-07-14 07:06:50 51°15.812 2°53.692 4 235 17.7 101000 89
2009-07-14 07:06:55 51°15.828 2°53.686 4.1 278 17.7 101000 89
2009-07-14 07:06:59 51°15.841 2°53.682 4.9 238 17.7 101000 89
2009-07-14 07:07:05 51°15.86 2°53.676 5 282 17.7 101000 89
2009-07-14 07:07:10 51°15.875 2°53.671 4.5 32 17.7 101000 90
2009-07-14 07:07:14 51°15.888 2°53.667 5 278 17.7 101000 90
2009-07-14 07:07:19 51°15.903 2°53.661 4.7 31 17.7 101000 90
2009-07-14 07:07:24 51°15.919 2°53.654 4.6 285 17.7 101000 90
2009-07-14 07:07:30 51°15.937 2°53.644 4 236 17.7 101000 89
2009-07-14 07:07:34 51°15.949 2°53.638 5.5 282 17.7 101000 89
2009-07-14 07:07:40 51°15.967 2°53.625 5.6 235 17.7 101000 90
2009-07-14 07:07:45 51°15.981 2°53.616 5.5 277 17.7 101000 90
2009-07-14 07:07:50 51°15.996 2°53.604 4.8 238 17.7 101000 90
2009-07-14 07:07:55 51°16.01 2°53.593 4.7 280 17.7 101000 90
2009-07-14 07:08:00 51°16.025 2°53.581 5.7 238 17.7 101000 90
2009-07-14 07:08:05 51°16.039 2°53.569 5.1 285 17.7 101000 90
2009-07-14 07:08:10 51°16.053 2°53.557 5.9 237 17.7 101000 90
2009-07-14 07:08:15 51°16.067 2°53.544 5.9 283 17.7 101000 90
2009-07-14 07:08:20 51°16.081 2°53.531 5.4 32 17.7 101000 90
2009-07-14 07:08:25 51°16.095 2°53.518 5.6 279 17.7 101000 89
2009-07-14 07:08:30 51°16.109 2°53.504 5.7 235 17.7 101000 89
2009-07-14 07:08:35 51°16.122 2°53.49 5.6 277 17.7 101000 89
2009-07-14 07:08:39 51°16.133 2°53.479 5.8 237 17.7 101000 89
2009-07-14 07:08:45 51°16.15 2°53.463 5.3 279 17.7 101000 89
2009-07-14 07:08:50 51°16.164 2°53.449 4.3 236 17.7 101000 89
2009-07-14 07:08:55 51°16.178 2°53.436 4.3 278 17.7 101000 89
2009-07-14 07:09:00 51°16.192 2°53.422 4.3 236 17.7 101000 89
2009-07-14 07:09:05 51°16.206 2°53.409 4.7 284 17.7 101000 89
2009-07-14 07:09:10 51°16.22 2°53.396 5 235 17.7 101000 89
2009-07-14 07:09:15 51°16.234 2°53.382 5.6 279 17.7 101000 89
2009-07-14 07:09:19 51°16.245 2°53.372 4.8 32 17.7 101000 89
2009-07-14 07:09:25 51°16.262 2°53.355 5.5 280 17.7 101000 89
2009-07-14 07:09:30 51°16.276 2°53.342 4.8 235 17.7 101000 89
2009-07-14 07:09:35 51°16.29 2°53.328 5.7 284 17.7 101000 89
2009-07-14 07:09:39 51°16.302 2°53.318 5.7 234 17.7 101000 89
2009-07-14 07:09:44 51°16.316 2°53.304 4.7 280 17.7 101000 89
2009-07-14 07:09:50 51°16.333 2°53.286 5.7 235 17.7 101000 89
2009-07-14 07:09:54 51°16.344 2°53.275 6.3 285 17.7 101000 90
2009-07-14 07:10:00 51°16.361 2°53.257 5.3 34 17.7 101000 90
2009-07-14 07:10:05 51°16.375 2°53.242 6.1 277 17.7 101000 90
2009-07-14 07:10:10 51°16.389 2°53.227 5.1 235 17.7 101000 89
2009-07-14 07:10:14 51°16.4 2°53.215 5.3 279 17.7 101000 89
2009-07-14 07:10:20 51°16.417 2°53.197 5 33 17.7 101000 89
2009-07-14 07:10:25 51°16.432 2°53.185 5.6 282 17.7 101000 90
2009-07-14 07:10:30 51°16.446 2°53.172 5.7 237 17.7 100990 89
2009-07-14 07:10:35 51°16.461 2°53.16 5.3 284 17.7 100990 89
2009-07-14 07:10:40 51°16.476 2°53.149 5.5 237 17.7 100990 89
2009-07-14 07:10:45 51°16.491 2°53.138 5 277 17.7 101000 89
2009-07-14 07:10:50 51°16.507 2°53.127 4.5 234 17.7 101000 89
2009-07-14 07:10:55 51°16.522 2°53.116 4.7 285 17.7 101000 89
2009-07-14 07:11:00 51°16.537 2°53.106 4.9 235 17.7 101000 89
2009-07-14 07:11:05 51°16.553 2°53.094 5.3 278 17.7 101000 89
2009-07-14 07:11:10 51°16.568 2°53.084 5 27 17.6 101000 90
2009-07-14 07:11:15 51°16.583 2°53.073 5.4 278 17.6 101000 90
2009-07-14 07:11:19 51°16.595 2°53.064 4.5 31 17.7 101000 88
2009-07-14 07:11:25 51°16.613 2°53.051 5.3 282 17.7 101000 88
2009-07-14 07:11:30 51°16.628 2°53.039 4.1 234 17.7 101000 88
2009-07-14 07:11:35 51°16.643 2°53.028 4.8 283 17.6 101000 89
2009-07-14 07:11:40 51°16.658 2°53.017 4.4 236 17.6 101000 89
2009-07-14 07:11:45 51°16.673 2°53.006 3.8 279 17.6 101000 89
2009-07-14 07:11:50 51°16.689 2°52.995 3.9 236 17.6 101000 88
2009-07-14 07:11:54 51°16.701 2°52.986 3.8 279 17.6 101000 88
2009-07-14 07:12:00 51°16.719 2°52.973 4.4 31 17.6 101000 87
2009-07-14 07:12:05 51°16.734 2°52.961 4.9 277 17.6 101000 87
2009-07-14 07:12:10 51°16.749 2°52.95 4.1 36 17.6 101000 88
2009-07-14 07:12:14 51°16.761 2°52.941 4 276 17.6 101000 88
2009-07-14 07:12:20 51°16.779 2°52.927 3.9 36 17.6 101000 89
2009-07-14 07:12:25 51°16.793 2°52.915 3.9 279 17.6 101000 89
2009-07-14 07:12:30 51°16.808 2°52.904 4.3 32 17.6 101000 89
2009-07-14 07:12:34 51°16.819 2°52.894 4.4 283 17.6 101000 89
2009-07-14 07:12:40 51°16.837 2°52.88 3.9 33 17.6 101000 89
2009-07-14 07:12:45 51°16.852 2°52.868 5.2 277 17.6 101000 90
2009-07-14 07:12:50 51°16.866 2°52.856 3.8 234 17.6 101000 90
2009-07-14 07:12:54 51°16.878 2°52.847 4.7 277 17.6 101000 90
2009-07-14 07:13:00 51°16.896 2°52.833 4.1 234 17.6 101000 90
2009-07-14 07:13:05 51°16.911 2°52.821 5.6 278 17.6 101000 90
2009-07-14 07:13:10 51°16.926 2°52.809 4.7 34 17.6 101000 90
2009-07-14 07:13:15 51°16.94 2°52.797 5 281 17.6 101000 90
2009-07-14 07:13:20 51°16.955 2°52.786 5.6 32 17.6 101000 90
2009-07-14 07:13:24 51°16.967 2°52.776 4.3 -999 17.6 101000 90
2009-07-14 07:13:30 51°16.985 2°52.763 5 32 17.7 101000 90
2009-07-14 07:13:34 51°16.997 2°52.754 4.2 279 17.7 101000 90
2009-07-14 07:13:40 51°17.015 2°52.74 4.2 236 17.7 101000 90
2009-07-14 07:13:45 51°17.03 2°52.728 4.2 284 17.6 101000 90
2009-07-14 07:13:50 51°17.045 2°52.716 5 37 17.6 101000 90
2009-07-14 07:13:55 51°17.06 2°52.705 5.1 283 17.6 101000 90
2009-07-14 07:14:00 51°17.075 2°52.693 4.2 236 17.6 101000 90
2009-07-14 07:14:05 51°17.089 2°52.681 4.4 284 17.6 101000 90
2009-07-14 07:14:10 51°17.104 2°52.669 5 236 17.6 101000 90
2009-07-14 07:14:15 51°17.119 2°52.657 4.3 278 17.6 101000 90
2009-07-14 07:14:19 51°17.131 2°52.648 4.7 34 17.6 101000 90
2009-07-14 07:14:25 51°17.149 2°52.634 4.8 279 17.6 101000 90
2009-07-14 07:14:30 51°17.164 2°52.623 4.1 35 17.6 101000 75
2009-07-14 07:14:35 51°17.179 2°52.611 4.5 276 17.6 101000 75
2009-07-14 07:14:40 51°17.194 2°52.6 3.9 235 17.6 101000 75
2009-07-14 07:14:45 51°17.21 2°52.589 4.2 282 17.6 101000 90
2009-07-14 07:14:50 51°17.225 2°52.577 4.2 237 17.6 101000 90
2009-07-14 07:14:55 51°17.24 2°52.566 4.7 283 17.6 101000 90
2009-07-14 07:15:00 51°17.255 2°52.555 5.3 233 17.6 101000 90
2009-07-14 07:15:05 51°17.27 2°52.544 5.5 284 17.6 101000 90
2009-07-14 07:15:10 51°17.285 2°52.532 4.6 34 17.6 101000 90
2009-07-14 07:15:15 51°17.3 2°52.521 5.7 285 17.6 101000 90
2009-07-14 07:15:19 51°17.313 2°52.512 5.4 236 17.7 101000 90
2009-07-14 07:15:25 51°17.331 2°52.499 5.3 278 17.7 101000 90
2009-07-14 07:15:30 51°17.346 2°52.487 5.4 33 17.7 101000 91
2009-07-14 07:15:35 51°17.361 2°52.475 5.8 279 17.7 101000 91
2009-07-14 07:15:40 51°17.376 2°52.464 4.6 31 17.7 101000 90
2009-07-14 07:15:45 51°17.39 2°52.452 4.7 279 17.7 101000 90
2009-07-14 07:15:50 51°17.406 2°52.442 4.3 236 17.7 101000 90
2009-07-14 07:15:55 51°17.421 2°52.432 5.5 277 17.7 101000 90
2009-07-14 07:16:00 51°17.436 2°52.422 4.3 238 17.7 101000 90
2009-07-14 07:16:05 51°17.452 2°52.414 4.4 279 17.7 100990 91
2009-07-14 07:16:10 51°17.468 2°52.405 3.5 239 17.7 100990 91
2009-07-14 07:16:14 51°17.481 2°52.399 3.5 284 17.7 101000 90
2009-07-14 07:16:20 51°17.5 2°52.392 4 239 17.7 101000 90
2009-07-14 07:16:25 51°17.516 2°52.386 3.9 279 17.7 101000 90
2009-07-14 07:16:30 51°17.532 2°52.382 4 242 17.6 101000 90
2009-07-14 07:16:34 51°17.546 2°52.378 3.7 279 17.6 101000 90
2009-07-14 07:16:40 51°17.565 2°52.374 3.2 242 17.6 101000 90
2009-07-14 07:16:45 51°17.582 2°52.37 4.1 280 17.6 101000 90
2009-07-14 07:16:50 51°17.599 2°52.367 3.6 241 17.6 101000 91
2009-07-14 07:16:54 51°17.612 2°52.364 3.5 279 17.6 101000 91
2009-07-14 07:17:00 51°17.632 2°52.361 2.7 237 17.6 101000 90
2009-07-14 07:17:05 51°17.649 2°52.358 2.7 280 17.6 101000 90
2009-07-14 07:17:10 51°17.665 2°52.356 3.7 234 17.6 101000 90
2009-07-14 07:17:15 51°17.682 2°52.353 3.7 281 17.6 101000 90
2009-07-14 07:17:20 51°17.699 2°52.352 3.1 240 17.6 101000 90
2009-07-14 07:17:25 51°17.715 2°52.35 3.2 280 17.6 101000 90
2009-07-14 07:17:30 51°17.732 2°52.349 3.4 240 17.7 101000 90
2009-07-14 07:17:34 51°17.746 2°52.348 3.4 280 17.7 101000 90
2009-07-14 07:17:40 51°17.766 2°52.346 2.6 242 17.7 101000 90
2009-07-14 07:17:45 51°17.783 2°52.345 2.7 281 17.7 101000 91
2009-07-14 07:17:50 51°17.799 2°52.343 2.6 243 17.7 101000 90
2009-07-14 07:17:55 51°17.816 2°52.342 3.3 279 17.7 101000 90
2009-07-14 07:18:00 51°17.833 2°52.34 3.7 238 17.7 101000 89
2009-07-14 07:18:05 51°17.85 2°52.338 3.6 278 17.7 101000 89
2009-07-14 07:18:10 51°17.866 2°52.337 3.8 238 17.7 101000 90
2009-07-14 07:18:15 51°17.883 2°52.335 3.8 279 17.7 101000 90
2009-07-14 07:18:20 51°17.9 2°52.333 3.9 240 17.7 101000 90
2009-07-14 07:18:25 51°17.917 2°52.33 3.5 283 17.7 101000 90
2009-07-14 07:18:30 51°17.933 2°52.328 4 239 17.7 101000 90
2009-07-14 07:18:34 51°17.947 2°52.327 3.4 285 17.7 101000 90
2009-07-14 07:18:40 51°17.967 2°52.324 3.2 241 17.7 101000 90
2009-07-14 07:18:45 51°17.984 2°52.322 3.7 280 17.7 101000 90
2009-07-14 07:18:50 51°18 2°52.32 3.2 241 17.7 101000 90
2009-07-14 07:18:54 51°18.014 2°52.318 3.7 279 17.7 101000 90
2009-07-14 07:19:00 51°18.034 2°52.315 3.1 241 17.7 101000 90
2009-07-14 07:19:05 51°18.05 2°52.312 2.8 282 17.7 101000 90
2009-07-14 07:19:10 51°18.067 2°52.309 2.8 243 17.8 101000 90
2009-07-14 07:19:14 51°18.08 2°52.307 3 283 17.8 101000 90
2009-07-14 07:19:20 51°18.1 2°52.304 2.4 241 17.8 101000 90
2009-07-14 07:19:25 51°18.117 2°52.301 3.9 280 17.8 101000 91
2009-07-14 07:19:30 51°18.134 2°52.299 3.7 241 17.7 101000 85
2009-07-14 07:19:34 51°18.147 2°52.297 3.7 278 17.7 101000 85
2009-07-14 07:19:40 51°18.168 2°52.293 3.5 241 17.7 101000 85
2009-07-14 07:19:45 51°18.184 2°52.29 4.1 279 17.8 101000 90
2009-07-14 07:19:50 51°18.201 2°52.288 4.4 241 17.7 101000 89
2009-07-14 07:19:54 51°18.215 2°52.286 4.3 283 17.7 101000 89
2009-07-14 07:20:00 51°18.235 2°52.283 3.7 242 17.7 101000 89
2009-07-14 07:20:04 51°18.249 2°52.28 3.7 285 17.7 101000 89
2009-07-14 07:20:10 51°18.269 2°52.277 3.6 242 17.7 101000 90
2009-07-14 07:20:14 51°18.282 2°52.275 4.6 279 17.7 101000 90
2009-07-14 07:20:20 51°18.302 2°52.271 4.2 245 17.7 101000 90
2009-07-14 07:20:25 51°18.319 2°52.269 4.2 277 17.8 101000 86
2009-07-14 07:20:30 51°18.336 2°52.266 4.3 241 17.8 101000 89
2009-07-14 07:20:35 51°18.353 2°52.265 3.7 279 17.8 101000 89
2009-07-14 07:20:40 51°18.37 2°52.263 3.8 246 17.8 101000 89
2009-07-14 07:20:44 51°18.383 2°52.261 3.2 283 17.8 101000 90
2009-07-14 07:20:50 51°18.404 2°52.259 3 247 17.8 101000 90
2009-07-14 07:20:55 51°18.42 2°52.257 3 279 17.8 101000 84
2009-07-14 07:21:00 51°18.437 2°52.257 2.7 240 17.8 101000 88
2009-07-14 07:21:05 51°18.454 2°52.255 3.3 283 17.8 101000 88
2009-07-14 07:21:10 51°18.471 2°52.254 3 240 17.8 101000 90
2009-07-14 07:21:14 51°18.484 2°52.254 2.5 281 17.8 101000 90
2009-07-14 07:21:20 51°18.504 2°52.253 2.6 247 17.8 101000 90
2009-07-14 07:21:25 51°18.521 2°52.253 2.9 277 17.8 101000 90
2009-07-14 07:21:30 51°18.538 2°52.252 2.9 243 17.8 101000 84
2009-07-14 07:21:34 51°18.551 2°52.253 2.9 281 17.8 101000 84
2009-07-14 07:21:40 51°18.571 2°52.252 2.9 243 17.8 101000 88
2009-07-14 07:21:45 51°18.588 2°52.253 2.9 278 17.8 101000 88
2009-07-14 07:21:50 51°18.605 2°52.252 3.1 249 17.8 101000 90
2009-07-14 07:21:54 51°18.618 2°52.253 3.1 282 17.8 101000 90
2009-07-14 07:22:00 51°18.639 2°52.252 2.9 248 17.8 101000 90
2009-07-14 07:22:04 51°18.652 2°52.251 2.5 277 17.8 101000 89
2009-07-14 07:22:10 51°18.672 2°52.25 2.6 248 17.8 101000 89
2009-07-14 07:22:14 51°18.686 2°52.25 2.3 280 17.8 101000 89
2009-07-14 07:22:20 51°18.706 2°52.249 2.3 244 17.8 101000 89
2009-07-14 07:22:25 51°18.723 2°52.248 2.1 26 17.8 101000 89
2009-07-14 07:22:30 51°18.74 2°52.247 2.8 247 17.8 101000 89
2009-07-14 07:22:35 51°18.756 2°52.246 2.3 278 17.8 101000 89
2009-07-14 07:22:39 51°18.77 2°52.245 1.5 247 17.8 101000 90
2009-07-14 07:22:44 51°18.787 2°52.244 3 282 17.8 101000 90
2009-07-14 07:22:50 51°18.807 2°52.243 3.3 240 17.8 101000 90
2009-07-14 07:22:54 51°18.82 2°52.243 3.4 286 17.8 101000 90
2009-07-14 07:23:00 51°18.84 2°52.242 3.7 246 17.8 101000 90
2009-07-14 07:23:04 51°18.854 2°52.241 3.4 285 17.8 101000 90
2009-07-14 07:23:10 51°18.874 2°52.241 3.4 246 17.8 101000 90
2009-07-14 07:23:14 51°18.887 2°52.241 3.3 281 17.8 101000 89
2009-07-14 07:23:20 51°18.907 2°52.24 2.8 248 17.8 101000 89
2009-07-14 07:23:25 51°18.924 2°52.24 2.4 286 17.8 101000 89
2009-07-14 07:23:30 51°18.941 2°52.24 2.7 248 17.8 101000 90
2009-07-14 07:23:34 51°18.954 2°52.24 3.1 279 17.8 101000 90
2009-07-14 07:23:39 51°18.971 2°52.24 3.1 244 17.8 101000 90
2009-07-14 07:23:45 51°18.991 2°52.24 2.5 278 17.8 101000 90
2009-07-14 07:23:50 51°19.008 2°52.239 2.6 245 17.8 101000 90
2009-07-14 07:23:54 51°19.021 2°52.239 2.9 277 17.8 101000 90
2009-07-14 07:23:59 51°19.038 2°52.239 2.4 246 17.8 101000 90
2009-07-14 07:24:05 51°19.058 2°52.239 2.8 285 17.8 101000 90
2009-07-14 07:24:10 51°19.075 2°52.238 2.5 241 17.8 101000 90
2009-07-14 07:24:14 51°19.088 2°52.238 2.4 283 17.8 101000 90
2009-07-14 07:24:19 51°19.105 2°52.238 2.3 244 17.8 101000 90
2009-07-14 07:24:25 51°19.125 2°52.237 2.4 280 17.8 101000 90
2009-07-14 07:24:30 51°19.142 2°52.237 2.4 243 17.8 101000 90
2009-07-14 07:24:34 51°19.155 2°52.237 1.9 283 17.8 101000 90
2009-07-14 07:24:40 51°19.176 2°52.237 1.9 241 17.8 101000 90
2009-07-14 07:24:45 51°19.193 2°52.237 2.6 285 17.8 101000 90
2009-07-14 07:24:50 51°19.209 2°52.237 2.8 233 17.8 101000 90
2009-07-14 07:24:54 51°19.223 2°52.237 2.7 283 17.9 101000 90
2009-07-14 07:24:59 51°19.239 2°52.237 2.7 242 17.9 101000 90
2009-07-14 07:25:04 51°19.256 2°52.238 3.1 284 17.9 101000 90
2009-07-14 07:25:10 51°19.276 2°52.238 2.8 243 17.9 101000 90
2009-07-14 07:25:14 51°19.29 2°52.239 2.7 279 17.9 101000 90
2009-07-14 07:25:19 51°19.307 2°52.239 3 243 17.9 101000 90
2009-07-14 07:25:24 51°19.323 2°52.238 2.2 283 17.9 101000 90
2009-07-14 07:25:30 51°19.343 2°52.239 3.2 239 17.9 101000 90
2009-07-14 07:25:34 51°19.357 2°52.239 3.3 280 17.9 101000 90
2009-07-14 07:25:40 51°19.377 2°52.239 3.6 236 17.9 101000 90
2009-07-14 07:25:45 51°19.393 2°52.238 2.6 284 17.9 101000 90
2009-07-14 07:25:50 51°19.41 2°52.238 3.2 239 17.9 101000 90
2009-07-14 07:25:54 51°19.423 2°52.238 2.8 283 17.9 101000 90
2009-07-14 07:26:00 51°19.443 2°52.237 3.2 240 17.9 101000 90
2009-07-14 07:26:05 51°19.46 2°52.236 3.4 284 17.9 101000 90
2009-07-14 07:26:10 51°19.476 2°52.235 3.1 239 17.9 101000 90
2009-07-14 07:26:14 51°19.49 2°52.234 3.4 285 17.9 101000 90
2009-07-14 07:26:20 51°19.51 2°52.233 3.2 235 17.9 101000 90
2009-07-14 07:26:25 51°19.526 2°52.232 3.8 282 17.9 101000 90
2009-07-14 07:26:30 51°19.543 2°52.23 3.5 237 17.9 100990 89
2009-07-14 07:26:34 51°19.556 2°52.23 3.2 284 17.9 100990 89
2009-07-14 07:26:39 51°19.572 2°52.229 2.8 242 17.9 101000 90
2009-07-14 07:26:44 51°19.589 2°52.228 2.9 277 17.9 101000 90
2009-07-14 07:26:50 51°19.609 2°52.227 3.3 235 17.9 101000 90
2009-07-14 07:26:54 51°19.623 2°52.226 3.7 280 17.9 101000 90
2009-07-14 07:27:00 51°19.642 2°52.225 3.3 242 17.9 101000 90
2009-07-14 07:27:04 51°19.656 2°52.224 2.9 285 17.9 101000 89
2009-07-14 07:27:10 51°19.675 2°52.222 2.9 237 17.9 101000 89
2009-07-14 07:27:14 51°19.689 2°52.221 3.1 280 17.9 101000 89
2009-07-14 07:27:20 51°19.708 2°52.22 3.7 234 17.9 101000 89
2009-07-14 07:27:25 51°19.725 2°52.219 3.3 19 17.9 101000 89
2009-07-14 07:27:30 51°19.742 2°52.218 2.8 32 17.9 101000 89
2009-07-14 07:27:35 51°19.758 2°52.217 3 277 17.9 100990 89
2009-07-14 07:27:39 51°19.772 2°52.216 3 239 17.9 101000 89
2009-07-14 07:27:44 51°19.788 2°52.215 3.4 277 17.9 101000 89
2009-07-14 07:27:50 51°19.808 2°52.214 2.6 237 17.9 101000 89
2009-07-14 07:27:54 51°19.821 2°52.214 3.4 279 17.9 101000 89
2009-07-14 07:28:00 51°19.841 2°52.213 2.6 239 17.9 101000 89
2009-07-14 07:28:05 51°19.858 2°52.213 2.3 284 17.9 101000 90
2009-07-14 07:28:10 51°19.875 2°52.212 2.8 238 17.9 101000 90
2009-07-14 07:28:14 51°19.888 2°52.211 2.3 284 17.9 100990 89
2009-07-14 07:28:20 51°19.908 2°52.211 3.1 33 17.9 100990 89
2009-07-14 07:28:25 51°19.925 2°52.21 3.6 277 17.9 100990 89
2009-07-14 07:28:30 51°19.941 2°52.209 3.3 238 17.9 100990 89
2009-07-14 07:28:34 51°19.955 2°52.209 3.5 284 17.9 100990 89
2009-07-14 07:28:40 51°19.975 2°52.209 3.4 239 17.9 100990 89
2009-07-14 07:28:45 51°19.992 2°52.209 3.2 282 17.9 101000 89
2009-07-14 07:28:50 51°20.009 2°52.209 2.8 238 17.9 100990 90
2009-07-14 07:28:54 51°20.022 2°52.209 2.8 282 17.9 100990 90
2009-07-14 07:28:59 51°20.039 2°52.208 3.2 237 17.9 100990 89
2009-07-14 07:29:04 51°20.056 2°52.208 2.7 277 17.9 100990 89
2009-07-14 07:29:10 51°20.076 2°52.208 2.7 234 17.9 100990 88
2009-07-14 07:29:14 51°20.09 2°52.208 3.5 283 17.9 100990 88
2009-07-14 07:29:19 51°20.106 2°52.207 2.9 234 17.9 100990 84
2009-07-14 07:29:24 51°20.123 2°52.207 3.1 283 17.9 100990 84
2009-07-14 07:29:30 51°20.144 2°52.206 3.4 237 17.9 100990 84
2009-07-14 07:29:34 51°20.157 2°52.205 3.6 278 17.9 100990 88
2009-07-14 07:29:40 51°20.177 2°52.204 3.8 239 17.9 100990 88
2009-07-14 07:29:45 51°20.194 2°52.203 3.3 280 17.9 100990 88
2009-07-14 07:29:50 51°20.211 2°52.202 2.8 240 17.9 100990 88
2009-07-14 07:29:55 51°20.228 2°52.203 2.5 277 17.9 100990 84
2009-07-14 07:29:59 51°20.241 2°52.203 3 238 18 100990 86
2009-07-14 07:30:04 51°20.258 2°52.203 2.7 283 18 100990 86
2009-07-14 07:30:10 51°20.278 2°52.203 2.4 237 18 101000 87
2009-07-14 07:30:14 51°20.291 2°52.204 2.6 280 18 101000 87
2009-07-14 07:30:20 51°20.311 2°52.203 2.8 239 17.9 100990 86
2009-07-14 07:30:25 51°20.328 2°52.203 2.9 277 17.9 100990 86
2009-07-14 07:30:30 51°20.345 2°52.203 2.9 32 17.9 100990 88
2009-07-14 07:30:34 51°20.358 2°52.202 2.3 279 17.9 100990 88
2009-07-14 07:30:39 51°20.375 2°52.202 2.7 34 17.9 100990 88
2009-07-14 07:30:45 51°20.394 2°52.2 2.9 285 17.9 100990 87
2009-07-14 07:30:50 51°20.411 2°52.2 2.8 232 17.9 100990 87
2009-07-14 07:30:54 51°20.425 2°52.198 2.8 282 17.9 100990 87
2009-07-14 07:31:00 51°20.445 2°52.197 2.5 234 17.9 100990 87
2009-07-14 07:31:05 51°20.461 2°52.196 3 280 18 100990 87
2009-07-14 07:31:10 51°20.478 2°52.196 2.8 238 17.9 100990 86
2009-07-14 07:31:14 51°20.491 2°52.195 3.5 279 17.9 100990 86
2009-07-14 07:31:20 51°20.511 2°52.195 2.9 33 18 100990 87
2009-07-14 07:31:25 51°20.527 2°52.195 2.8 20 18 100990 87
2009-07-14 07:31:30 51°20.544 2°52.195 2.4 238 18 100990 86
2009-07-14 07:31:35 51°20.561 2°52.195 2.6 278 18 100990 86
2009-07-14 07:31:39 51°20.574 2°52.194 2.5 238 18 100990 86
2009-07-14 07:31:44 51°20.59 2°52.194 2.5 279 18 100990 86
2009-07-14 07:31:50 51°20.61 2°52.195 2.2 33 18 100990 86
2009-07-14 07:31:54 51°20.624 2°52.195 2.3 279 18 100990 87
2009-07-14 07:32:00 51°20.643 2°52.195 2.2 237 18 100990 87
2009-07-14 07:32:04 51°20.657 2°52.195 2.9 284 18 100990 86
2009-07-14 07:32:10 51°20.676 2°52.194 2.9 236 18 100990 86
2009-07-14 07:32:15 51°20.693 2°52.194 2.1 280 18 100990 86
2009-07-14 07:32:20 51°20.71 2°52.193 2.5 40 18 100990 85
2009-07-14 07:32:25 51°20.727 2°52.192 2.6 279 18 100990 85
2009-07-14 07:32:30 51°20.743 2°52.191 2.6 236 18 100990 85
2009-07-14 07:32:34 51°20.757 2°52.191 2.5 279 18 100990 85
2009-07-14 07:32:40 51°20.777 2°52.19 2.3 234 18 100990 85
2009-07-14 07:32:45 51°20.793 2°52.19 2.2 280 18 100990 85
2009-07-14 07:32:50 51°20.81 2°52.19 2.5 33 18 100990 85
2009-07-14 07:32:54 51°20.823 2°52.19 2.8 279 17.9 100990 82
2009-07-14 07:32:59 51°20.84 2°52.189 2.9 35 18 100990 85
2009-07-14 07:33:05 51°20.86 2°52.188 2.6 278 18 100990 85
2009-07-14 07:33:10 51°20.876 2°52.187 2.1 236 18 100990 86
2009-07-14 07:33:14 51°20.89 2°52.186 2.5 282 18 100990 86
2009-07-14 07:33:20 51°20.91 2°52.185 1.8 238 18 100990 86
2009-07-14 07:33:25 51°20.926 2°52.185 2.2 277 18 100990 86
2009-07-14 07:33:30 51°20.943 2°52.185 2.4 238 18 100990 86
2009-07-14 07:33:34 51°20.956 2°52.185 2.2 279 18 100990 86
2009-07-14 07:33:40 51°20.976 2°52.184 2.2 240 18 100990 86
2009-07-14 07:33:45 51°20.993 2°52.183 2.3 278 18 100990 86
2009-07-14 07:33:50 51°21.01 2°52.182 1.9 239 18 100990 86
2009-07-14 07:33:55 51°21.026 2°52.182 1.7 278 18 100990 86
2009-07-14 07:33:59 51°21.039 2°52.182 2.4 236 18 100990 86
2009-07-14 07:34:04 51°21.056 2°52.181 2.2 278 18 100990 86
2009-07-14 07:34:10 51°21.076 2°52.182 2 25 18 100990 86
2009-07-14 07:34:14 51°21.089 2°52.181 2.3 278 18 100990 86
2009-07-14 07:34:20 51°21.109 2°52.181 1.9 240 18 100990 86
2009-07-14 07:34:24 51°21.123 2°52.18 2 284 18 100990 86
2009-07-14 07:34:30 51°21.143 2°52.179 2.3 237 18 100990 86
2009-07-14 07:34:35 51°21.159 2°52.179 2 285 18 100990 86
2009-07-14 07:34:40 51°21.176 2°52.179 2.4 238 18 100990 87
2009-07-14 07:34:45 51°21.192 2°52.178 2.3 285 18 100990 87
2009-07-14 07:34:50 51°21.209 2°52.178 2.2 238 18 100990 87
2009-07-14 07:34:54 51°21.222 2°52.177 3.2 279 18 100990 87
2009-07-14 07:35:00 51°21.242 2°52.176 2.9 239 18 100990 87
2009-07-14 07:35:05 51°21.259 2°52.175 2.3 283 18 100990 87
2009-07-14 07:35:10 51°21.276 2°52.173 2.3 239 18 100990 87
2009-07-14 07:35:14 51°21.289 2°52.173 2.8 276 18 100990 87
2009-07-14 07:35:20 51°21.309 2°52.172 3.4 238 18 100990 87
2009-07-14 07:35:25 51°21.325 2°52.171 2.1 282 18 100990 87
2009-07-14 07:35:30 51°21.342 2°52.17 2 241 18 100990 88
2009-07-14 07:35:34 51°21.355 2°52.17 2.8 277 18 100990 88
2009-07-14 07:35:40 51°21.375 2°52.169 2.4 241 18 100990 88
2009-07-14 07:35:45 51°21.392 2°52.168 2.8 283 18 100990 87
2009-07-14 07:35:50 51°21.409 2°52.166 2.6 236 18 100990 87
2009-07-14 07:35:54 51°21.422 2°52.165 2.2 278 18 100990 87
2009-07-14 07:36:00 51°21.442 2°52.164 2.6 32 18 100990 86
2009-07-14 07:36:05 51°21.459 2°52.163 2.8 279 18 100990 86
2009-07-14 07:36:10 51°21.475 2°52.163 2 241 18 100990 84
2009-07-14 07:36:15 51°21.492 2°52.162 2.5 284 18 100990 84
2009-07-14 07:36:20 51°21.509 2°52.161 2.1 241 18 100990 85
2009-07-14 07:36:25 51°21.526 2°52.161 1.9 278 18 100990 85
2009-07-14 07:36:30 51°21.543 2°52.161 2.8 241 18 100990 85
2009-07-14 07:36:35 51°21.559 2°52.161 2.4 279 18 100990 84
2009-07-14 07:36:40 51°21.576 2°52.16 2.8 240 18 100990 87
2009-07-14 07:36:44 51°21.589 2°52.159 2.1 279 18 100990 87
2009-07-14 07:36:50 51°21.609 2°52.159 2.2 33 18 100990 87
2009-07-14 07:36:54 51°21.623 2°52.158 2.3 281 18 100990 85
2009-07-14 07:37:00 51°21.643 2°52.157 2.3 242 18 100990 81
2009-07-14 07:37:05 51°21.659 2°52.156 2.3 283 18 100990 81
2009-07-14 07:37:10 51°21.676 2°52.156 3 242 18 100990 86
2009-07-14 07:37:14 51°21.69 2°52.156 3.2 280 18 100990 86
2009-07-14 07:37:20 51°21.71 2°52.155 2.7 241 18 100990 86
2009-07-14 07:37:25 51°21.727 2°52.155 3.1 283 18 100990 86
2009-07-14 07:37:30 51°21.744 2°52.155 2.8 241 18 100990 86
2009-07-14 07:37:34 51°21.757 2°52.155 2.6 279 18 100990 86
2009-07-14 07:37:39 51°21.774 2°52.156 2.6 241 18 100990 87
2009-07-14 07:37:45 51°21.794 2°52.157 2.2 280 18 100990 87
2009-07-14 07:37:50 51°21.811 2°52.157 2.5 242 18 100990 85
2009-07-14 07:37:54 51°21.825 2°52.157 2.1 279 18 100990 85
2009-07-14 07:37:59 51°21.842 2°52.158 2.5 241 18 100990 86
2009-07-14 07:38:05 51°21.862 2°52.159 2 283 18 100990 86
2009-07-14 07:38:10 51°21.879 2°52.16 1.9 240 18 100990 87
2009-07-14 07:38:14 51°21.893 2°52.16 2.6 282 18 100990 87
2009-07-14 07:38:19 51°21.91 2°52.16 2.8 240 18 100990 86
2009-07-14 07:38:24 51°21.927 2°52.159 2.8 286 18 100990 86
2009-07-14 07:38:30 51°21.947 2°52.159 2.3 239 18 100990 86
2009-07-14 07:38:34 51°21.961 2°52.159 3.1 279 18 100990 86
2009-07-14 07:38:40 51°21.981 2°52.159 2.5 240 18 100990 86
2009-07-14 07:38:45 51°21.998 2°52.16 2.5 279 18 100990 86
2009-07-14 07:38:50 51°22.015 2°52.16 2.7 242 18.1 100990 87
2009-07-14 07:38:55 51°22.032 2°52.16 2.2 279 18.1 100990 87
2009-07-14 07:38:59 51°22.046 2°52.16 2.2 240 18.1 100990 86
2009-07-14 07:39:04 51°22.063 2°52.161 2.9 278 18.1 100990 86
2009-07-14 07:39:10 51°22.083 2°52.161 2.6 238 18.1 100990 86
2009-07-14 07:39:14 51°22.097 2°52.161 2.5 277 18.1 100990 86
2009-07-14 07:39:20 51°22.117 2°52.162 2.6 240 18.1 100990 85
2009-07-14 07:39:25 51°22.134 2°52.161 2.4 286 18.1 100990 85
2009-07-14 07:39:30 51°22.151 2°52.162 2.8 243 18.1 100990 83
2009-07-14 07:39:34 51°22.165 2°52.162 2.6 283 18.1 100990 83
2009-07-14 07:39:40 51°22.185 2°52.163 2.5 242 18.1 100990 85
2009-07-14 07:39:45 51°22.203 2°52.163 2.7 280 18.1 100990 85
2009-07-14 07:39:50 51°22.22 2°52.163 2.6 245 18.1 100990 83
2009-07-14 07:39:54 51°22.233 2°52.163 3.3 283 18.1 100990 83
2009-07-14 07:40:00 51°22.254 2°52.163 2.9 241 18.1 100990 83
2009-07-14 07:40:05 51°22.271 2°52.164 2 279 18.1 100990 85
2009-07-14 07:40:10 51°22.288 2°52.164 1.9 243 18.1 100990 74
2009-07-14 07:40:14 51°22.301 2°52.165 2.6 285 18.1 100990 74
2009-07-14 07:40:19 51°22.318 2°52.165 3.3 241 18.1 100990 73
2009-07-14 07:40:25 51°22.338 2°52.166 2.7 284 18.1 100990 73
2009-07-14 07:40:30 51°22.356 2°52.166 3.1 242 18.1 100990 73
2009-07-14 07:40:34 51°22.369 2°52.166 2.5 278 18.1 100990 73
2009-07-14 07:40:39 51°22.386 2°52.167 2.4 244 18.1 100990 73
2009-07-14 07:40:44 51°22.403 2°52.167 2.7 279 18.1 100990 73
2009-07-14 07:40:50 51°22.423 2°52.167 2.6 241 18.2 100990 74
2009-07-14 07:40:54 51°22.437 2°52.167 2.7 282 18.2 100990 74
2009-07-14 07:41:00 51°22.457 2°52.169 2.1 244 18.2 100990 72
2009-07-14 07:41:04 51°22.47 2°52.169 2.6 280 18.2 100990 72
2009-07-14 07:41:10 51°22.49 2°52.17 2.5 235 18.2 100990 72
2009-07-14 07:41:15 51°22.507 2°52.17 3.1 282 18.2 100990 72
2009-07-14 07:41:20 51°22.523 2°52.17 3.2 241 18.2 100990 73
2009-07-14 07:41:25 51°22.54 2°52.17 3.7 279 18.2 100990 73
2009-07-14 07:41:30 51°22.557 2°52.169 3.2 242 18.2 100990 73
2009-07-14 07:41:35 51°22.573 2°52.169 3.2 280 18.2 100990 73
2009-07-14 07:41:40 51°22.59 2°52.169 2.8 240 18.2 100990 74
2009-07-14 07:41:45 51°22.607 2°52.169 3 284 18.2 100990 74
2009-07-14 07:41:50 51°22.624 2°52.169 2.9 244 18.2 100990 73
2009-07-14 07:41:54 51°22.637 2°52.17 2.6 280 18.2 100990 73
2009-07-14 07:42:00 51°22.657 2°52.17 2.6 245 18.2 100990 73
2009-07-14 07:42:05 51°22.674 2°52.17 3.1 283 18.2 100990 73
2009-07-14 07:42:10 51°22.691 2°52.17 3.2 245 18.2 100990 74
2009-07-14 07:42:14 51°22.704 2°52.17 3 280 18.2 100990 74
2009-07-14 07:42:19 51°22.721 2°52.17 2.7 238 18.3 100990 72
2009-07-14 07:42:25 51°22.741 2°52.17 3.2 284 18.3 100990 72
2009-07-14 07:42:30 51°22.758 2°52.171 2.8 241 18.3 100990 72
2009-07-14 07:42:34 51°22.771 2°52.17 3.1 280 18.3 100990 72
2009-07-14 07:42:40 51°22.791 2°52.17 2.4 243 18.3 101000 72
2009-07-14 07:42:45 51°22.808 2°52.17 2.9 278 18.3 101000 72
2009-07-14 07:42:50 51°22.825 2°52.171 3.3 239 18.2 100990 72
2009-07-14 07:42:55 51°22.842 2°52.171 2.8 280 18.2 100990 72
2009-07-14 07:42:59 51°22.855 2°52.171 2.8 241 18.3 100990 73
2009-07-14 07:43:04 51°22.872 2°52.171 3 284 18.3 100990 73
2009-07-14 07:43:10 51°22.893 2°52.172 2.7 244 18.2 100990 72
2009-07-14 07:43:14 51°22.906 2°52.172 2.8 278 18.2 100990 72
2009-07-14 07:43:19 51°22.923 2°52.172 3 245 18.3 101000 72
2009-07-14 07:43:24 51°22.94 2°52.171 3 279 18.3 101000 72
2009-07-14 07:43:30 51°22.96 2°52.171 3.2 243 18.2 100990 73
2009-07-14 07:43:34 51°22.973 2°52.171 3.6 278 18.2 100990 73
2009-07-14 07:43:40 51°22.994 2°52.17 3.2 240 18.2 100990 72
2009-07-14 07:43:45 51°23.011 2°52.169 3 279 18.2 100990 72
2009-07-14 07:43:50 51°23.028 2°52.168 3.8 241 18.2 100990 72
2009-07-14 07:43:54 51°23.041 2°52.167 2.7 280 18.3 101000 73
2009-07-14 07:44:00 51°23.061 2°52.167 3.5 241 18.2 101000 72
2009-07-14 07:44:05 51°23.078 2°52.166 1.6 278 18.2 101000 72
2009-07-14 07:44:10 51°23.095 2°52.166 3.1 243 18.3 101000 71
2009-07-14 07:44:14 51°23.108 2°52.165 3.1 282 18.3 101000 71
2009-07-14 07:44:20 51°23.128 2°52.165 2.9 238 18.3 101000 71
2009-07-14 07:44:25 51°23.145 2°52.165 2.7 278 18.3 101000 71
2009-07-14 07:44:30 51°23.162 2°52.164 2.8 239 18.3 100990 71
2009-07-14 07:44:34 51°23.176 2°52.164 3.7 277 18.3 100990 71
2009-07-14 07:44:39 51°23.193 2°52.164 2.7 33 18.3 100990 72
2009-07-14 07:44:45 51°23.213 2°52.164 2.6 277 18.3 100990 72
2009-07-14 07:44:50 51°23.23 2°52.164 3.1 242 18.3 100990 72
2009-07-14 07:44:54 51°23.244 2°52.164 3.2 282 18.3 100990 72
2009-07-14 07:44:59 51°23.261 2°52.165 3.4 242 18.3 100990 72
2009-07-14 07:45:04 51°23.278 2°52.165 2.9 281 18.3 100990 72
2009-07-14 07:45:10 51°23.298 2°52.165 3 24 18.3 100990 72
2009-07-14 07:45:14 51°23.312 2°52.165 3.3 278 18.3 100990 72
2009-07-14 07:45:20 51°23.332 2°52.165 2.7 239 18.3 101000 72
2009-07-14 07:45:25 51°23.35 2°52.165 3.5 22 18.3 101000 72
2009-07-14 07:45:30 51°23.367 2°52.166 4 32 18.3 100990 71
2009-07-14 07:45:35 51°23.384 2°52.166 3.5 283 18.3 100990 71
2009-07-14 07:45:40 51°23.401 2°52.166 3.3 32 18.3 100990 73
2009-07-14 07:45:45 51°23.418 2°52.166 4.8 282 18.3 100990 73
2009-07-14 07:45:50 51°23.435 2°52.166 3.6 239 18.3 100990 71
2009-07-14 07:45:55 51°23.452 2°52.166 3.9 278 18.3 100990 71
2009-07-14 07:46:00 51°23.469 2°52.166 3.2 238 18.3 100990 72
2009-07-14 07:46:05 51°23.486 2°52.166 3.2 280 18.3 100990 72
2009-07-14 07:46:10 51°23.503 2°52.167 3.4 239 18.3 100990 71
2009-07-14 07:46:14 51°23.517 2°52.167 3.7 280 18.3 100990 71
2009-07-14 07:46:20 51°23.537 2°52.167 3.6 238 18.3 100990 71
2009-07-14 07:46:25 51°23.554 2°52.167 3.4 276 18.3 100990 71
2009-07-14 07:46:30 51°23.571 2°52.166 4.5 239 18.2 100990 70
2009-07-14 07:46:34 51°23.585 2°52.165 4 278 18.2 100990 70
2009-07-14 07:46:40 51°23.605 2°52.165 3.3 240 18.2 100990 70
2009-07-14 07:46:45 51°23.622 2°52.165 3.3 280 18.2 100990 70
2009-07-14 07:46:50 51°23.639 2°52.165 3.8 240 18.3 100990 71
2009-07-14 07:46:54 51°23.652 2°52.165 3.4 284 18.3 100990 71
2009-07-14 07:46:59 51°23.669 2°52.165 3.3 239 18.2 100990 73
2009-07-14 07:47:05 51°23.689 2°52.165 3.5 283 18.2 100990 73
2009-07-14 07:47:10 51°23.706 2°52.165 3.2 33 18.2 101000 81
2009-07-14 07:47:14 51°23.72 2°52.165 3.9 278 18.2 101000 81
2009-07-14 07:47:19 51°23.737 2°52.165 4.2 237 18.2 101000 82
2009-07-14 07:47:24 51°23.754 2°52.164 4 279 18.2 101000 82
2009-07-14 07:47:30 51°23.774 2°52.164 3.6 25 18.2 101000 83
2009-07-14 07:47:34 51°23.787 2°52.163 4.3 278 18.2 101000 83
2009-07-14 07:47:40 51°23.808 2°52.162 3.5 239 18.2 100990 83
2009-07-14 07:47:45 51°23.825 2°52.161 3.6 285 18.2 100990 83
2009-07-14 07:47:50 51°23.842 2°52.161 3.3 242 18.2 100990 83
2009-07-14 07:47:55 51°23.859 2°52.16 3.8 277 18.2 101000 83
2009-07-14 07:48:00 51°23.876 2°52.16 4 238 18.3 100990 82
2009-07-14 07:48:05 51°23.892 2°52.16 3.3 280 18.3 100990 82
2009-07-14 07:48:10 51°23.909 2°52.16 3 241 18.3 100990 81
2009-07-14 07:48:15 51°23.926 2°52.16 3.6 278 18.3 100990 81
2009-07-14 07:48:20 51°23.943 2°52.16 3.7 241 18.2 101000 80
2009-07-14 07:48:25 51°23.96 2°52.159 4 278 18.2 101000 80
2009-07-14 07:48:30 51°23.976 2°52.158 4.8 238 18.3 101000 81
2009-07-14 07:48:34 51°23.99 2°52.157 3.6 284 18.3 101000 81
2009-07-14 07:48:40 51°24.01 2°52.156 3.9 242 18.3 101000 81
2009-07-14 07:48:45 51°24.027 2°52.155 3.6 285 18.3 101000 81
2009-07-14 07:48:50 51°24.044 2°52.154 3.4 244 18.3 100990 81
2009-07-14 07:48:54 51°24.057 2°52.153 3.6 285 18.3 100990 81
2009-07-14 07:49:00 51°24.077 2°52.152 3.6 240 18.3 100990 81
2009-07-14 07:49:05 51°24.094 2°52.15 4.2 285 18.3 101000 79
2009-07-14 07:49:10 51°24.111 2°52.15 3.7 242 18.3 100990 79
2009-07-14 07:49:14 51°24.124 2°52.149 3.6 278 18.3 100990 79
2009-07-14 07:49:19 51°24.141 2°52.148 3.7 235 18.3 100990 81
2009-07-14 07:49:25 51°24.161 2°52.147 3.3 283 18.3 100990 81
2009-07-14 07:49:30 51°24.178 2°52.146 3.7 245 18.3 101000 82
2009-07-14 07:49:34 51°24.191 2°52.145 3.5 283 18.3 101000 82
2009-07-14 07:49:39 51°24.208 2°52.145 3.5 237 18.3 101000 83
2009-07-14 07:49:44 51°24.225 2°52.144 3.6 285 18.3 101000 83
2009-07-14 07:49:50 51°24.245 2°52.143 4.4 22 18.3 101000 82
2009-07-14 07:49:54 51°24.258 2°52.143 3.6 279 18.3 101000 82
2009-07-14 07:50:00 51°24.279 2°52.143 3.5 243 18.3 101000 80
2009-07-14 07:50:04 51°24.292 2°52.143 3.8 279 18.3 101000 80
2009-07-14 07:50:10 51°24.313 2°52.143 3.5 240 18.3 101000 84
2009-07-14 07:50:15 51°24.329 2°52.143 3 286 18.3 101000 84
2009-07-14 07:50:20 51°24.346 2°52.142 3.4 32 18.3 101000 83
2009-07-14 07:50:25 51°24.363 2°52.142 3.9 285 18.3 101000 83
2009-07-14 07:50:30 51°24.38 2°52.141 5 234 18.3 101000 83
2009-07-14 07:50:35 51°24.397 2°52.141 4.6 283 18.3 101000 83
2009-07-14 07:50:40 51°24.413 2°52.141 4.4 243 18.3 100990 83
2009-07-14 07:50:45 51°24.43 2°52.14 4.1 281 18.3 100990 83
2009-07-14 07:50:50 51°24.447 2°52.14 3.9 236 18.3 101000 80
2009-07-14 07:50:54 51°24.46 2°52.139 4.1 277 18.3 101000 80
2009-07-14 07:51:00 51°24.48 2°52.138 4.7 243 18.3 101000 82
2009-07-14 07:51:05 51°24.497 2°52.137 4 284 18.3 101000 82
2009-07-14 07:51:10 51°24.513 2°52.137 4 241 18.3 101000 82
2009-07-14 07:51:14 51°24.526 2°52.136 4 278 18.3 101000 83
2009-07-14 07:51:20 51°24.546 2°52.135 3.5 244 18.3 101000 83
2009-07-14 07:51:25 51°24.563 2°52.134 3.8 283 18.3 101000 83
2009-07-14 07:51:30 51°24.58 2°52.134 3.5 246 18.3 101000 83
2009-07-14 07:51:34 51°24.593 2°52.134 3.4 283 18.3 101000 82
2009-07-14 07:51:40 51°24.613 2°52.134 4.1 245 18.3 101000 82
2009-07-14 07:51:45 51°24.63 2°52.134 3.9 284 18.4 101000 84
2009-07-14 07:51:50 51°24.647 2°52.134 3.5 237 18.4 101000 84
2009-07-14 07:51:54 51°24.66 2°52.134 4.7 280 18.4 101000 83
2009-07-14 07:52:00 51°24.68 2°52.134 4.1 237 18.4 101000 83
2009-07-14 07:52:05 51°24.697 2°52.134 4.4 283 18.3 101000 82
2009-07-14 07:52:10 51°24.714 2°52.134 4.3 237 18.4 101000 84
2009-07-14 07:52:15 51°24.73 2°52.134 3.7 284 18.4 101000 84
2009-07-14 07:52:20 51°24.747 2°52.134 4.1 239 18.4 101000 84
2009-07-14 07:52:25 51°24.764 2°52.133 5.3 29 18.3 101000 84
2009-07-14 07:52:30 51°24.78 2°52.133 3.8 241 18.3 101000 84
2009-07-14 07:52:34 51°24.794 2°52.132 4.2 278 18.3 101000 83
2009-07-14 07:52:40 51°24.814 2°52.131 3.9 242 18.4 101000 84
2009-07-14 07:52:45 51°24.831 2°52.131 4.3 284 18.4 101000 84
2009-07-14 07:52:50 51°24.847 2°52.131 4.6 34 18.4 101000 84
2009-07-14 07:52:55 51°24.864 2°52.131 4.4 285 18.3 101000 84
2009-07-14 07:53:00 51°24.881 2°52.13 4.6 238 18.3 101000 84
2009-07-14 07:53:05 51°24.897 2°52.13 4 277 18.3 101000 83
2009-07-14 07:53:10 51°24.914 2°52.13 4.2 237 18.3 101000 83
2009-07-14 07:53:14 51°24.928 2°52.13 3.9 279 18.3 101000 84
2009-07-14 07:53:20 51°24.948 2°52.129 4.4 32 18.3 101000 84
2009-07-14 07:53:25 51°24.965 2°52.129 3.4 25 18.3 101000 84
2009-07-14 07:53:30 51°24.981 2°52.128 3.9 243 18.3 101000 84
2009-07-14 07:53:34 51°24.995 2°52.128 3.8 283 18.3 101000 84
2009-07-14 07:53:40 51°25.015 2°52.127 3.6 241 18.3 101000 84
2009-07-14 07:53:45 51°25.032 2°52.127 3.3 280 18.3 101000 84
2009-07-14 07:53:50 51°25.049 2°52.126 4 236 18.3 101000 84
2009-07-14 07:53:54 51°25.062 2°52.126 4.3 278 18.3 100990 84
2009-07-14 07:54:00 51°25.083 2°52.125 3.9 31 18.3 100990 84
2009-07-14 07:54:05 51°25.099 2°52.124 3.8 285 18.3 101000 83
2009-07-14 07:54:10 51°25.116 2°52.123 4.5 242 18.3 101000 84
2009-07-14 07:54:14 51°25.13 2°52.123 3.5 281 18.3 101000 84
2009-07-14 07:54:20 51°25.15 2°52.123 4.4 239 18.3 101000 84
2009-07-14 07:54:25 51°25.167 2°52.122 4.5 20 18.3 101000 84
2009-07-14 07:54:30 51°25.184 2°52.121 4.7 237 18.3 101000 84
2009-07-14 07:54:35 51°25.201 2°52.121 4.2 283 18.3 101000 84
2009-07-14 07:54:40 51°25.218 2°52.121 4.8 237 18.3 101000 84
2009-07-14 07:54:44 51°25.231 2°52.12 4.2 284 18.3 101000 84
2009-07-14 07:54:50 51°25.252 2°52.121 4.7 33 18.3 101000 84
2009-07-14 07:54:54 51°25.266 2°52.121 4.1 280 18.3 101000 84
2009-07-14 07:55:00 51°25.286 2°52.121 4 237 18.3 101000 84
2009-07-14 07:55:05 51°25.303 2°52.122 4.2 284 18.3 101000 84
2009-07-14 07:55:10 51°25.32 2°52.121 3.9 239 18.3 101000 84
2009-07-14 07:55:14 51°25.333 2°52.122 4.2 284 18.3 100990 84
2009-07-14 07:55:20 51°25.354 2°52.121 4 31 18.3 101000 84
2009-07-14 07:55:25 51°25.371 2°52.122 3.7 22 18.3 101000 84
2009-07-14 07:55:30 51°25.388 2°52.121 3.7 238 18.3 101000 84
2009-07-14 07:55:34 51°25.402 2°52.121 3.3 280 18.3 101000 83
2009-07-14 07:55:40 51°25.422 2°52.121 3.5 237 18.3 101000 83
2009-07-14 07:55:45 51°25.439 2°52.121 3.6 277 18.3 100990 84
2009-07-14 07:55:50 51°25.456 2°52.121 3 37 18.3 100990 84
2009-07-14 07:55:54 51°25.47 2°52.121 4.1 278 18.3 101000 83
2009-07-14 07:56:00 51°25.49 2°52.122 3.6 40 18.3 101000 84
2009-07-14 07:56:05 51°25.507 2°52.122 3.7 284 18.3 101000 84
2009-07-14 07:56:10 51°25.524 2°52.122 3.2 234 18.3 101000 84
2009-07-14 07:56:15 51°25.541 2°52.122 3.6 281 18.3 101000 83
2009-07-14 07:56:20 51°25.558 2°52.122 3.4 35 18.3 101000 83
2009-07-14 07:56:24 51°25.572 2°52.122 3.1 28 18.3 101000 83
2009-07-14 07:56:30 51°25.592 2°52.121 3.7 233 18.3 101000 84
2009-07-14 07:56:34 51°25.605 2°52.122 3 276 18.3 101000 84
2009-07-14 07:56:40 51°25.626 2°52.122 4.3 233 18.3 101000 84
2009-07-14 07:56:45 51°25.643 2°52.122 4 282 18.3 101000 83
2009-07-14 07:56:50 51°25.66 2°52.123 4.6 35 18.3 101000 84
2009-07-14 07:56:55 51°25.677 2°52.123 4.3 285 18.3 101000 84
2009-07-14 07:57:00 51°25.694 2°52.124 4.2 34 18.3 101000 84
2009-07-14 07:57:05 51°25.711 2°52.125 4.2 278 18.3 101000 83
2009-07-14 07:57:10 51°25.728 2°52.125 4 32 18.3 101000 83
2009-07-14 07:57:15 51°25.744 2°52.125 3.2 278 18.3 101000 83
2009-07-14 07:57:20 51°25.761 2°52.126 4 235 18.3 101000 83
2009-07-14 07:57:25 51°25.778 2°52.126 3.4 26 18.3 101000 83
2009-07-14 07:57:30 51°25.795 2°52.127 4.3 234 18.3 101000 83
2009-07-14 07:57:34 51°25.808 2°52.128 4 283 18.3 101000 83
2009-07-14 07:57:40 51°25.829 2°52.128 3.4 235 18.3 101000 84
2009-07-14 07:57:45 51°25.845 2°52.128 3.5 280 18.3 101000 84
2009-07-14 07:57:50 51°25.862 2°52.129 3.9 33 18.3 101000 84
2009-07-14 07:57:54 51°25.876 2°52.129 3.5 277 18.2 101000 83
2009-07-14 07:58:00 51°25.896 2°52.13 4.7 233 18.2 101000 83
2009-07-14 07:58:05 51°25.913 2°52.13 3.6 284 18.3 101000 83
2009-07-14 07:58:10 51°25.929 2°52.13 5.1 38 18.3 101000 83
2009-07-14 07:58:14 51°25.943 2°52.129 4.3 284 18.2 101000 83
2009-07-14 07:58:20 51°25.963 2°52.13 4.2 233 18.2 101000 83
2009-07-14 07:58:25 51°25.98 2°52.129 4.4 24 18.2 101000 83
2009-07-14 07:58:30 51°25.997 2°52.128 4.2 35 18.2 101000 83
2009-07-14 07:58:35 51°26.013 2°52.127 5 278 18.2 101000 83
2009-07-14 07:58:40 51°26.03 2°52.125 5.4 233 18.2 101000 83
2009-07-14 07:58:44 51°26.043 2°52.125 5.8 279 18.2 101000 83
2009-07-14 07:58:50 51°26.064 2°52.123 4.6 237 18.2 100990 83
2009-07-14 07:58:54 51°26.077 2°52.123 4.5 280 18.2 100990 83
2009-07-14 07:59:00 51°26.097 2°52.121 4.6 235 18.2 100990 83
2009-07-14 07:59:04 51°26.11 2°52.121 5 284 18.2 101000 83
2009-07-14 07:59:10 51°26.13 2°52.119 4.8 32 18.2 100990 83
2009-07-14 07:59:15 51°26.147 2°52.119 4.7 280 18.2 100990 83
2009-07-14 07:59:20 51°26.163 2°52.118 4.6 33 18.2 100990 83
2009-07-14 07:59:25 51°26.18 2°52.117 4.8 -999 18.2 100990 83
2009-07-14 07:59:30 51°26.197 2°52.116 5.7 32 18.2 100990 83
2009-07-14 07:59:35 51°26.214 2°52.115 4.6 284 18.2 100990 83
2009-07-14 07:59:40 51°26.23 2°52.114 4.5 237 18.2 100990 83
2009-07-14 07:59:45 51°26.247 2°52.113 4.9 284 18.2 100990 83
2009-07-14 07:59:50 51°26.264 2°52.113 4.8 33 18.2 100990 83
2009-07-14 07:59:54 51°26.277 2°52.112 4.2 285 18.2 100990 83
2009-07-14 08:00:00 51°26.298 2°52.112 4.7 235 18.2 100990 83
2009-07-14 08:00:05 51°26.314 2°52.112 4.7 279 18.2 100990 83
2009-07-14 08:00:10 51°26.331 2°52.112 4.4 33 18.2 100990 83
2009-07-14 08:00:14 51°26.345 2°52.112 4.5 279 18.2 100990 82
2009-07-14 08:00:20 51°26.365 2°52.112 4.1 236 18.1 100990 83
2009-07-14 08:00:25 51°26.382 2°52.113 3.7 284 18.1 100990 83
2009-07-14 08:00:30 51°26.399 2°52.113 4.3 235 18.1 100990 83
2009-07-14 08:00:34 51°26.413 2°52.113 3.8 281 18.1 100990 83
2009-07-14 08:00:40 51°26.433 2°52.112 4.8 234 18.1 100990 83
2009-07-14 08:00:45 51°26.45 2°52.112 3.4 279 18.1 100990 82
2009-07-14 08:00:50 51°26.467 2°52.112 4.4 236 18.1 100990 82
2009-07-14 08:00:55 51°26.484 2°52.112 3.6 279 18.1 101000 82
2009-07-14 08:01:00 51°26.501 2°52.112 3.4 33 18.1 101000 82
2009-07-14 08:01:05 51°26.518 2°52.112 3.9 278 18.1 100990 83
2009-07-14 08:01:10 51°26.535 2°52.112 3.4 32 18.1 101000 83
2009-07-14 08:01:14 51°26.549 2°52.112 3.9 284 18.1 101000 83
2009-07-14 08:01:20 51°26.569 2°52.112 3.5 234 18.1 101000 83
2009-07-14 08:01:25 51°26.587 2°52.112 4.4 22 18.1 100990 83
2009-07-14 08:01:30 51°26.604 2°52.112 4.3 237 18.1 100990 83
2009-07-14 08:01:34 51°26.617 2°52.111 4 278 18.1 101000 82
2009-07-14 08:01:40 51°26.637 2°52.11 4.1 236 18.1 101000 83
2009-07-14 08:01:45 51°26.654 2°52.108 4.7 279 18.1 101000 83
2009-07-14 08:01:50 51°26.671 2°52.107 4.6 235 18.1 101000 83
2009-07-14 08:01:55 51°26.688 2°52.106 3.7 282 18.1 100990 83
2009-07-14 08:02:00 51°26.705 2°52.105 3.6 236 18.1 100990 83
2009-07-14 08:02:05 51°26.722 2°52.104 3.8 279 18.1 100990 83
2009-07-14 08:02:10 51°26.739 2°52.103 3.6 236 18.1 100990 83
2009-07-14 08:02:14 51°26.752 2°52.101 4.3 277 18.1 100990 83
2009-07-14 08:02:20 51°26.772 2°52.099 4.5 236 18.1 100990 83
2009-07-14 08:02:25 51°26.789 2°52.098 4.6 25 18.1 100990 83
2009-07-14 08:02:30 51°26.806 2°52.096 4.4 34 18.1 100990 83
2009-07-14 08:02:34 51°26.819 2°52.095 5.1 281 18.1 100990 83
2009-07-14 08:02:40 51°26.839 2°52.094 5.2 32 18.1 100990 83
2009-07-14 08:02:45 51°26.856 2°52.092 4 284 18.1 100990 83
2009-07-14 08:02:50 51°26.873 2°52.091 4.8 34 18.1 100990 83
2009-07-14 08:02:54 51°26.886 2°52.09 4.7 279 18.1 100990 83
2009-07-14 08:03:00 51°26.906 2°52.087 5.1 235 18.1 100990 83
2009-07-14 08:03:05 51°26.923 2°52.086 4.6 283 18.1 100990 84
2009-07-14 08:03:10 51°26.94 2°52.084 4 235 18.1 100990 84
2009-07-14 08:03:14 51°26.953 2°52.083 4 280 18.1 100990 84
2009-07-14 08:03:20 51°26.973 2°52.082 4.2 236 18.1 100990 84
2009-07-14 08:03:25 51°26.99 2°52.08 4.9 22 18.1 100990 83
2009-07-14 08:03:30 51°27.007 2°52.079 4.8 31 18.1 100990 83
2009-07-14 08:03:35 51°27.024 2°52.078 4.2 280 18.1 100990 83
2009-07-14 08:03:40 51°27.041 2°52.077 4.6 32 18.1 100990 83
2009-07-14 08:03:45 51°27.058 2°52.075 4.7 284 18.1 100990 83